Station Historical Data
 
Daily Summary for October 20, 2017 Units:  English    Metric   Both
« Previous Day
Next Day »
Daily Weekly Monthly Yearly Custom
  Current: High: Low: Average:
Temperature: 37.2 °F 45.1 °F 37.2 °F 40.4 °F
Dew Point: 35.1 °F 42.2 °F 34.8 °F 37.7 °F
Humidity: 92% 92% 87% 90%
Wind Speed: 0.0mph 7.3mph 0.0mph 0.7mph
Wind Gust: 0.0mph 8.1mph - -
WindCalm - - South
Pressure: 29.75 in 29.75 in 29.60 in -
Precipitation: 0.65 in      
Historical Graphs
 
 
Tabular Data for October 20, 2017
Time Temperature Dew Point Pressure Wind Wind Speed Wind Gust Humidity Rainfall Rate (Hourly) solar Conditions
00:01 43.0 °F 40.0 °F 29.60 in Calm     89% 0.00 in 0.0 W/m2 -RA
00:06 43.2 °F 40.1 °F 29.60 in Calm     89% 0.00 in 0.0 W/m2 -RA
00:11 43.2 °F 40.1 °F 29.60 in Calm     89% 0.00 in 0.0 W/m2 -RA
00:16 43.3 °F 40.3 °F 29.61 in Calm     89% 0.00 in 0.0 W/m2 -RA
00:17 43.3 °F 40.3 °F 29.61 in Calm     89% 0.00 in 0.0 W/m2 -RA
00:22 43.5 °F 40.5 °F 29.62 in Calm     89% 0.00 in 0.0 W/m2 -RA
00:27 43.5 °F 40.8 °F 29.62 in Calm     90% 0.00 in 0.0 W/m2 -RA
00:32 43.7 °F 41.0 °F 29.62 in Calm   5.8 mph 90% 0.00 in 0.0 W/m2 -RA
00:34 43.9 °F 41.1 °F 29.62 in WNW 3.6 mph 3.6 mph 90% 0.00 in 0.0 W/m2 -RA
00:39 44.8 °F 42.0 °F 29.63 in WNW 0.3 mph 4.0 mph 90% 0.00 in 0.0 W/m2 -RA
00:44 45.0 °F 42.2 °F 29.63 in NW 7.2 mph 7.2 mph 90% 0.00 in 0.0 W/m2 -RA
00:49 45.1 °F 41.8 °F 29.63 in NW 1.8 mph 3.5 mph 88% 0.00 in 0.0 W/m2 RA
00:54 44.8 °F 41.4 °F 29.64 in Calm     88% 0.02 in 0.0 W/m2 RA
00:59 44.4 °F 41.1 °F 29.64 in West 7.3 mph 8.1 mph 88% 0.02 in 0.0 W/m2 RA
01:04 44.4 °F 40.8 °F 29.64 in NW 7.2 mph 7.2 mph 87% 0.04 in 0.0 W/m2 -RA
01:09 44.2 °F 40.6 °F 29.64 in West 5.1 mph 5.8 mph 87% 0.04 in 0.0 W/m2 -RA
01:14 44.2 °F 40.6 °F 29.65 in Calm     87% 0.06 in 0.0 W/m2 -RA
01:19 43.7 °F 40.1 °F 29.64 in Calm     87% 0.06 in 0.0 W/m2 -RA
01:24 43.5 °F 39.9 °F 29.64 in NW 1.5 mph   87% 0.06 in 0.0 W/m2 -RA
01:29 43.3 °F 39.7 °F 29.64 in Calm   3.5 mph 87% 0.06 in 0.0 W/m2 -RA
01:34 43.2 °F 39.6 °F 29.64 in Calm     87% 0.06 in 0.0 W/m2 -RA
01:39 42.8 °F 39.5 °F 29.64 in Calm     88% 0.06 in 0.0 W/m2 -RA
01:44 42.6 °F 39.3 °F 29.64 in Calm     88% 0.08 in 0.0 W/m2 -RA
01:49 42.6 °F 39.3 °F 29.65 in Calm     88% 0.08 in 0.0 W/m2 -RA
01:54 42.4 °F 39.4 °F 29.64 in Calm     89% 0.06 in 0.0 W/m2 -RA
01:59 42.4 °F 39.4 °F 29.65 in Calm     89% 0.06 in 0.0 W/m2 -RA
02:04 42.3 °F 39.2 °F 29.65 in Calm     89% 0.06 in 0.0 W/m2 -RA
02:10 42.1 °F 39.1 °F 29.65 in Calm     89% 0.06 in 0.0 W/m2 -RA
02:15 42.1 °F 39.4 °F 29.64 in Calm     90% 0.06 in 0.0 W/m2 -RA
02:20 42.1 °F 39.4 °F 29.65 in Calm     90% 0.08 in 0.0 W/m2 -RA
02:25 42.1 °F 39.4 °F 29.65 in Calm     90% 0.08 in 0.0 W/m2 -RA
02:30 42.1 °F 39.4 °F 29.65 in Calm     90% 0.08 in 0.0 W/m2 -RA
02:35 42.1 °F 39.4 °F 29.65 in Calm     90% 0.08 in 0.0 W/m2 -RA
02:40 42.1 °F 39.4 °F 29.65 in Calm     90% 0.06 in 0.0 W/m2 -RA
02:45 42.1 °F 39.4 °F 29.65 in Calm     90% 0.04 in 0.0 W/m2 -RA
02:50 42.1 °F 39.4 °F 29.65 in Calm     90% 0.06 in 0.0 W/m2 -RA
02:55 42.1 °F 39.4 °F 29.65 in Calm     90% 0.08 in 0.0 W/m2 -RA
03:00 42.1 °F 39.4 °F 29.65 in Calm     90% 0.08 in 0.0 W/m2 -RA
03:05 42.1 °F 39.4 °F 29.65 in Calm     90% 0.08 in 0.0 W/m2 -RA
03:10 41.9 °F 39.2 °F 29.65 in Calm     90% 0.08 in 0.0 W/m2 -RA
03:15 41.9 °F 39.2 °F 29.65 in Calm     90% 0.08 in 0.0 W/m2 -RA
03:20 41.9 °F 39.2 °F 29.65 in Calm     90% 0.06 in 0.0 W/m2 -RA
03:25 41.7 °F 39.3 °F 29.66 in Calm     91% 0.06 in 0.0 W/m2 -RA
03:30 41.5 °F 39.1 °F 29.66 in Calm     91% 0.08 in 0.0 W/m2 -RA
03:35 41.5 °F 39.1 °F 29.66 in Calm     91% 0.08 in 0.0 W/m2 -RA
03:40 41.5 °F 39.1 °F 29.65 in Calm     91% 0.10 in 0.0 W/m2 -RA
03:45 41.5 °F 39.1 °F 29.65 in Calm     91% 0.10 in 0.0 W/m2 -RA
03:50 41.5 °F 39.1 °F 29.65 in Calm     91% 0.10 in 0.0 W/m2 -RA
03:55 41.5 °F 39.1 °F 29.65 in Calm     91% 0.08 in 0.0 W/m2 -RA
04:00 41.5 °F 39.1 °F 29.65 in Calm     91% 0.08 in 0.0 W/m2 -RA
04:05 41.5 °F 39.1 °F 29.65 in Calm     91% 0.08 in 0.0 W/m2 -RA
04:10 41.4 °F 38.9 °F 29.66 in Calm     91% 0.10 in 0.0 W/m2 -RA
04:15 41.4 °F 38.9 °F 29.66 in Calm     91% 0.10 in 0.0 W/m2 -RA
04:20 41.2 °F 38.8 °F 29.65 in Calm     91% 0.10 in 0.0 W/m2 -RA
04:25 41.2 °F 38.8 °F 29.65 in Calm     91% 0.10 in 0.0 W/m2 -RA
04:30 41.2 °F 38.8 °F 29.65 in Calm     91% 0.08 in 0.0 W/m2 -RA
04:35 41.0 °F 38.3 °F 29.66 in Calm     90% 0.08 in 0.0 W/m2 -RA
04:40 40.8 °F 38.1 °F 29.66 in Calm     90% 0.08 in 0.0 W/m2 -RA
04:45 40.8 °F 38.1 °F 29.65 in Calm     90% 0.00 in 0.0 W/m2 -RA
04:50 40.6 °F 38.2 °F 29.66 in Calm     91% 0.06 in 0.0 W/m2 -RA
04:55 40.6 °F 38.2 °F 29.66 in Calm     91% 0.00 in 0.0 W/m2 -RA
05:00 40.6 °F 38.2 °F 29.66 in Calm     91% 0.08 in 0.0 W/m2 -RA
05:05 40.6 °F 38.2 °F 29.66 in Calm     91% 0.00 in 0.0 W/m2 -RA
05:10 40.5 °F 37.8 °F 29.66 in Calm     90% 0.06 in 0.0 W/m2 -RA
05:15 40.3 °F 37.6 °F 29.66 in Calm     90% 0.04 in 0.0 W/m2 -RA
05:20 40.1 °F 37.4 °F 29.66 in Calm     90% 0.00 in 0.0 W/m2 -RA
05:25 40.1 °F 37.4 °F 29.66 in Calm     90% 0.00 in 0.0 W/m2 -RA
05:30 40.1 °F 37.4 °F 29.66 in Calm     90% 0.00 in 0.0 W/m2 -RA
05:35 40.1 °F 37.4 °F 29.66 in Calm   3.6 mph 90% 0.02 in 0.0 W/m2 -RA
05:40 39.9 °F 37.5 °F 29.66 in Calm   4.0 mph 91% 0.02 in 0.0 W/m2 -RA
05:45 39.9 °F 37.5 °F 29.66 in Calm     91% 0.00 in 0.0 W/m2 -RA
05:50 39.9 °F 37.5 °F 29.66 in Calm     91% 0.00 in 0.0 W/m2 -RA
05:55 39.7 °F 37.3 °F 29.66 in Calm     91% 0.02 in 0.0 W/m2 -RA
06:00 39.7 °F 37.3 °F 29.67 in Calm     91% 0.02 in 0.0 W/m2 -RA
06:05 39.6 °F 37.2 °F 29.67 in Calm     91% 0.02 in 0.0 W/m2 -RA
06:10 39.6 °F 37.2 °F 29.67 in Calm     91% 0.02 in 0.0 W/m2 -RA
06:15 39.4 °F 37.0 °F 29.67 in ESE 4.9 mph 4.9 mph 91% 0.02 in 0.0 W/m2 -RA
06:20 39.4 °F 37.0 °F 29.67 in Calm     91% 0.02 in 0.0 W/m2 -RA
06:25 39.4 °F 37.0 °F 29.67 in Calm     91% 0.02 in 0.0 W/m2 -RA
06:30 39.4 °F 37.0 °F 29.66 in ENE 4.2 mph 4.6 mph 91% 0.04 in 0.0 W/m2 -RA
06:35 39.0 °F 36.6 °F 29.67 in Calm     91% 0.04 in 0.0 W/m2 -RA
06:40 39.0 °F 36.6 °F 29.67 in Calm     91% 0.02 in 0.0 W/m2 -RA
06:41 39.0 °F 36.6 °F 29.67 in Calm     91% 0.02 in 0.0 W/m2 -RA
06:46 39.0 °F 36.6 °F 29.67 in Calm     91% 0.04 in 0.0 W/m2 -RA
06:51 39.0 °F 36.6 °F 29.67 in Calm     91% 0.04 in 0.0 W/m2 -RA
06:56 38.8 °F 36.4 °F 29.67 in ESE 2.7 mph 4.6 mph 91% 0.04 in 0.0 W/m2 -RA
07:01 38.8 °F 36.4 °F 29.67 in Calm     91% 0.04 in 0.0 W/m2 -RA
07:06 38.8 °F 36.4 °F 29.68 in Calm     91% 0.04 in 0.0 W/m2 -RA
07:11 38.7 °F 36.3 °F 29.68 in SE 0.7 mph 1.2 mph 91% 0.04 in 0.0 W/m2 -RA
07:16 38.8 °F 36.4 °F 29.68 in Calm     91% 0.04 in 0.0 W/m2 -RA
07:21 38.5 °F 36.1 °F 29.68 in Calm     91% 0.06 in 0.0 W/m2 -RA
07:26 38.5 °F 36.1 °F 29.68 in Calm     91% 0.04 in 0.0 W/m2 -RA
07:31 38.5 °F 36.1 °F 29.68 in Calm     91% 0.04 in 0.0 W/m2 -RA
07:36 38.5 °F 36.1 °F 29.67 in Calm     91% 0.04 in 0.0 W/m2 -RA
07:41 38.5 °F 36.1 °F 29.68 in Calm     91% 0.04 in 0.0 W/m2 -RA
07:46 38.5 °F 36.1 °F 29.68 in Calm     91% 0.04 in 0.0 W/m2 -RA
07:51 38.5 °F 36.1 °F 29.68 in Calm     91% 0.04 in 0.0 W/m2 -RA
07:56 38.3 °F 35.9 °F 29.69 in ESE 1.2 mph 1.2 mph 91% 0.04 in 0.0 W/m2 -RA
08:01 38.3 °F 35.9 °F 29.68 in ESE 4.0 mph 4.6 mph 91% 0.04 in 0.0 W/m2 -RA
08:06 38.1 °F 35.7 °F 29.69 in Calm   5.4 mph 91% 0.04 in 0.0 W/m2 -RA
08:11 38.1 °F 35.7 °F 29.69 in ESE 1.8 mph 1.8 mph 91% 0.04 in 0.0 W/m2 -RA
08:16 38.1 °F 35.7 °F 29.70 in ESE 3.8 mph 4.6 mph 91% 0.04 in 0.0 W/m2 -RA
08:21 37.9 °F 35.5 °F 29.70 in ESE 3.8 mph 3.8 mph 91% 0.04 in 0.0 W/m2 -RA
08:26 37.9 °F 35.5 °F 29.69 in SE 3.4 mph 3.5 mph 91% 0.04 in 0.0 W/m2 -RA
08:31 37.9 °F 35.5 °F 29.70 in ESE 6.5 mph 6.9 mph 91% 0.04 in 0.0 W/m2 -RA
08:36 37.8 °F 35.4 °F 29.70 in ESE 6.0 mph 6.0 mph 91% 0.06 in 0.0 W/m2 -RA
08:42 37.6 °F 35.2 °F 29.70 in Calm     91% 0.06 in 0.0 W/m2 -RA
08:47 37.4 °F 35.0 °F 29.70 in SE 1.6 mph 1.6 mph 91% 0.04 in 0.0 W/m2 -RA
08:52 37.4 °F 35.0 °F 29.71 in Calm     91% 0.04 in 0.0 W/m2 -RA
08:57 37.2 °F 34.8 °F 29.71 in SE 3.5 mph 3.5 mph 91% 0.10 in 0.0 W/m2 -RA
09:07 37.2 °F 34.8 °F 29.71 in ESE 2.0 mph 5.8 mph 91% 0.10 in 0.0 W/m2 -RA
09:12 37.2 °F 34.8 °F 29.71 in SE 0.2 mph 2.3 mph 91% 0.12 in 0.0 W/m2 -RA
09:17 37.2 °F 34.8 °F 29.71 in SSE 1.6 mph 2.3 mph 91% 0.12 in 0.0 W/m2 -RA
09:22 37.2 °F 34.8 °F 29.72 in ESE 1.1 mph 1.2 mph 91% 0.10 in 0.0 W/m2 -RA
09:27 37.2 °F 34.8 °F 29.72 in Calm     91% 0.10 in 0.0 W/m2 -RA
09:32 37.2 °F 34.8 °F 29.71 in Calm     91% 0.10 in 0.0 W/m2 -RA
09:37 37.2 °F 34.8 °F 29.72 in SSE 4.6 mph 4.6 mph 91% 0.08 in 0.0 W/m2 -RA
09:42 37.2 °F 34.8 °F 29.72 in Calm   4.6 mph 91% 0.08 in 0.0 W/m2 -RA
09:47 37.2 °F 34.8 °F 29.72 in SSE 3.2 mph 3.5 mph 91% 0.10 in 0.0 W/m2 -RA
09:52 37.2 °F 34.8 °F 29.73 in SE 0.2 mph 1.2 mph 91% 0.10 in 0.0 W/m2 -RA
09:57 37.2 °F 35.1 °F 29.73 in Calm     92% 0.04 in 0.0 W/m2 -RA
10:02 37.2 °F 34.8 °F 29.73 in Calm     91% 0.04 in 0.0 W/m2 RA
10:07 37.2 °F 35.1 °F 29.73 in Calm     92% 0.06 in 0.0 W/m2 RA
10:12 37.4 °F 35.0 °F 29.73 in Calm     91% 0.04 in 0.0 W/m2 RA
10:17 37.4 °F 35.0 °F 29.74 in Calm     91% 0.04 in 0.0 W/m2 RA
10:22 37.2 °F 34.8 °F 29.74 in Calm     91% 0.04 in 0.0 W/m2 RA
10:27 37.2 °F 34.8 °F 29.74 in Calm     91% 0.04 in 0.0 W/m2 RA
10:32 37.2 °F 34.8 °F 29.74 in Calm     91% 0.06 in 0.0 W/m2 RA
10:37 37.2 °F 35.1 °F 29.75 in Calm     92% 0.06 in 0.0 W/m2 RA
Fernwood Weather
Compliments of Weather Underground - 2.75 mb